Time;durP1;ratioP1;P1;durP2;ratioP2;P2;SDS_P1;SDS_P2;PMS_P1;PMS_P2;Temp;Humidity;BMP_temperature;BMP_pressure;BME280_temperature;BME280_humidity;BME280_pressure;Samples;Min_cycle;Max_cycle;Signal;HPM_P1;HPM_P2
2021/12/07 00:00:50;;;;;;;10.77;6.67;;;5.00;77.60;;;;;;5055227;28;20028;-74
2021/12/07 00:03:16;;;;;;;9.03;5.30;;;4.90;77.60;;;;;;5054297;28;20068;-74
2021/12/07 00:05:42;;;;;;;10.83;6.57;;;4.90;77.60;;;;;;5054139;28;20052;-74
2021/12/07 00:08:08;;;;;;;10.67;6.17;;;5.00;77.60;;;;;;5035361;28;20017;-74
2021/12/07 00:10:35;;;;;;;10.30;5.83;;;4.90;77.60;;;;;;5042807;28;20566;-74
2021/12/07 00:13:01;;;;;;;10.60;6.40;;;5.00;77.60;;;;;;5030989;28;20040;-74
2021/12/07 00:15:30;;;;;;;11.27;6.70;;;5.00;77.60;;;;;;5047718;28;20124;-74
2021/12/07 00:17:55;;;;;;;10.87;6.23;;;4.90;77.50;;;;;;5028590;28;20122;-74
2021/12/07 00:20:23;;;;;;;9.87;6.10;;;5.00;77.60;;;;;;5015154;28;20038;-74
2021/12/07 00:22:51;;;;;;;10.03;6.37;;;5.00;77.50;;;;;;5032022;28;20120;-74
2021/12/07 00:25:17;;;;;;;9.93;6.30;;;4.90;77.50;;;;;;5014212;28;20096;-74
2021/12/07 00:27:42;;;;;;;10.33;6.27;;;4.90;77.50;;;;;;5035865;28;20032;-74
2021/12/07 00:30:11;;;;;;;8.57;5.03;;;4.90;77.60;;;;;;5037135;28;20047;-74
2021/12/07 00:32:43;;;;;;;10.10;5.93;;;4.90;77.60;;;;;;5038872;28;20068;-74
2021/12/07 00:37:45;;;;;;;9.60;5.73;;;4.90;77.60;;;;;;5028115;28;19979;-75
2021/12/07 00:40:13;;;;;;;10.37;5.53;;;4.90;77.70;;;;;;5067228;28;20029;-75
2021/12/07 00:42:39;;;;;;;9.73;6.17;;;4.90;77.60;;;;;;5060525;28;20038;-74
2021/12/07 00:45:06;;;;;;;9.43;5.37;;;4.90;77.60;;;;;;5014965;28;20034;-75
2021/12/07 00:47:32;;;;;;;9.87;5.97;;;4.90;77.60;;;;;;5014632;28;20040;-74
2021/12/07 00:49:59;;;;;;;11.20;6.67;;;4.90;77.60;;;;;;5013891;28;20030;-75
2021/12/07 00:52:26;;;;;;;9.73;5.67;;;4.90;77.60;;;;;;5019943;28;20021;-75
2021/12/07 00:54:52;;;;;;;9.23;5.17;;;4.90;77.60;;;;;;5030301;28;20021;-74
2021/12/07 00:57:20;;;;;;;9.07;5.33;;;4.90;77.70;;;;;;5046977;28;20412;-74
2021/12/07 00:59:48;;;;;;;10.63;5.33;;;4.90;77.60;;;;;;5046335;28;20180;-74
2021/12/07 01:02:14;;;;;;;9.57;5.70;;;4.90;77.70;;;;;;5014951;28;20026;-74
2021/12/07 01:04:49;;;;;;;10.00;5.37;;;4.90;77.70;;;;;;5065094;28;20090;-74
2021/12/07 01:07:33;;;;;;;11.53;6.57;;;4.90;78.40;;;;;;5032455;28;20026;-75
2021/12/07 01:26:28;;;;;;;10.63;6.63;;;4.90;77.90;;;;;;5028485;28;20525;-74
2021/12/07 01:28:53;;;;;;;10.43;6.20;;;4.90;77.90;;;;;;5035799;28;20133;-75
2021/12/07 01:31:26;;;;;;;9.67;5.83;;;4.90;77.80;;;;;;5003021;28;20045;-75
2021/12/07 01:42:54;;;;;;;9.47;5.73;;;4.90;77.90;;;;;;5017089;28;20041;-74
2021/12/07 01:47:54;;;;;;;9.53;6.10;;;4.90;78.00;;;;;;4995878;28;20121;-74
2021/12/07 01:50:44;;;;;;;9.77;6.07;;;4.90;78.10;;;;;;4963983;28;20050;-74
2021/12/07 02:01:06;;;;;;;10.93;6.60;;;4.90;78.20;;;;;;4999337;28;20120;-74
2021/12/07 02:03:32;;;;;;;12.03;6.50;;;4.90;78.20;;;;;;5005614;28;20040;-74
2021/12/07 02:05:58;;;;;;;10.33;6.60;;;4.90;78.10;;;;;;5035444;28;20033;-74
2021/12/07 02:08:23;;;;;;;12.00;7.23;;;5.00;78.20;;;;;;5025516;28;20061;-74
2021/12/07 02:10:53;;;;;;;11.17;6.97;;;5.00;78.30;;;;;;4998795;28;20430;-74
2021/12/07 02:14:03;;;;;;;11.37;7.83;;;5.00;78.30;;;;;;5030668;28;20033;-74
2021/12/07 02:16:08;;;;;;;12.83;8.43;;;5.00;78.30;;;;;;5042147;28;20025;-74
2021/12/07 02:18:34;;;;;;;13.30;8.50;;;5.00;78.30;;;;;;5036366;28;20408;-74
2021/12/07 02:21:23;;;;;;;11.63;8.20;;;5.00;78.40;;;;;;5024148;28;20030;-74
2021/12/07 02:23:55;;;;;;;13.17;8.83;;;5.00;78.40;;;;;;5068280;28;20064;-74
2021/12/07 02:26:21;;;;;;;13.40;8.27;;;5.00;78.40;;;;;;5036328;28;20080;-74
2021/12/07 02:29:07;;;;;;;13.13;8.90;;;4.90;78.40;;;;;;5048187;28;20143;-74
2021/12/07 02:31:34;;;;;;;13.33;8.30;;;5.00;79.20;;;;;;5052101;28;20072;-74
2021/12/07 02:34:00;;;;;;;13.97;9.17;;;5.00;78.60;;;;;;5048273;28;20439;-74
2021/12/07 02:36:26;;;;;;;15.20;9.47;;;5.00;78.60;;;;;;5032252;28;20080;-74
2021/12/07 02:38:53;;;;;;;13.97;9.27;;;5.00;78.60;;;;;;5023553;28;20029;-74
2021/12/07 02:41:19;;;;;;;11.60;8.13;;;5.00;78.60;;;;;;5021986;28;20463;-72
2021/12/07 02:43:46;;;;;;;13.40;8.53;;;5.00;78.60;;;;;;5048840;28;20034;-72
2021/12/07 02:46:12;;;;;;;14.13;9.23;;;5.00;78.60;;;;;;5085366;28;20025;-72
2021/12/07 02:48:38;;;;;;;13.67;9.20;;;5.00;78.60;;;;;;5045073;28;20044;-71
2021/12/07 02:51:04;;;;;;;13.37;9.17;;;5.00;78.60;;;;;;5048366;28;20129;-71
2021/12/07 02:53:33;;;;;;;15.90;9.70;;;5.00;78.60;;;;;;5026353;28;20362;-71
2021/12/07 02:56:00;;;;;;;15.30;9.70;;;5.00;78.60;;;;;;5035596;28;20451;-71
2021/12/07 02:58:30;;;;;;;13.90;9.30;;;5.00;78.60;;;;;;5032917;28;20108;-71
2021/12/07 03:01:03;;;;;;;13.67;9.07;;;5.00;78.60;;;;;;5049935;28;20101;-71
2021/12/07 03:03:36;;;;;;;14.47;9.33;;;5.00;78.60;;;;;;5033606;28;20091;-71
2021/12/07 03:06:15;;;;;;;14.00;9.27;;;5.00;78.60;;;;;;5051614;28;20033;-72
2021/12/07 03:09:10;;;;;;;16.30;10.70;;;5.00;78.60;;;;;;5034596;28;20316;-72
2021/12/07 03:28:06;;;;;;;14.80;10.17;;;4.90;78.70;;;;;;5052202;28;20446;-72
2021/12/07 03:30:33;;;;;;;14.03;9.93;;;4.90;78.70;;;;;;5046855;28;20045;-72
2021/12/07 03:33:00;;;;;;;15.63;10.27;;;4.90;78.70;;;;;;5015924;28;20101;-72
2021/12/07 03:35:26;;;;;;;14.10;10.27;;;4.90;78.70;;;;;;5049522;28;20394;-72
2021/12/07 03:37:53;;;;;;;16.83;10.30;;;4.90;78.70;;;;;;5014665;28;20034;-72
2021/12/07 03:40:19;;;;;;;15.17;9.77;;;4.90;78.70;;;;;;5056838;28;20123;-72
2021/12/07 03:42:44;;;;;;;16.97;10.20;;;4.90;78.70;;;;;;5026358;28;20446;-72
2021/12/07 03:45:12;;;;;;;14.87;10.17;;;4.90;78.80;;;;;;5025027;28;20056;-72
2021/12/07 03:47:38;;;;;;;16.37;11.40;;;4.90;78.70;;;;;;5067314;28;20123;-72
2021/12/07 03:50:06;;;;;;;15.07;9.93;;;4.90;78.80;;;;;;5034317;28;20030;-72
2021/12/07 03:52:31;;;;;;;17.20;10.57;;;4.90;78.80;;;;;;5040876;28;20121;-72
2021/12/07 03:54:57;;;;;;;15.70;10.80;;;4.90;78.80;;;;;;5034504;28;20473;-72
2021/12/07 03:57:23;;;;;;;16.67;11.30;;;4.90;78.70;;;;;;5053149;28;20040;-72
2021/12/07 03:59:49;;;;;;;15.13;10.90;;;4.90;78.70;;;;;;5050012;28;20366;-72
2021/12/07 04:02:16;;;;;;;15.53;9.90;;;4.90;78.80;;;;;;5015429;28;20025;-72
2021/12/07 04:04:42;;;;;;;17.87;11.23;;;4.90;78.80;;;;;;5014910;28;20036;-72
2021/12/07 04:07:07;;;;;;;15.50;10.20;;;4.90;78.80;;;;;;5067055;28;20033;-72
2021/12/07 04:09:33;;;;;;;14.90;10.00;;;4.90;78.80;;;;;;5050261;28;20022;-72
2021/12/07 04:12:00;;;;;;;18.30;10.27;;;4.90;78.80;;;;;;5030236;28;20100;-72
2021/12/07 04:14:26;;;;;;;16.07;10.53;;;4.90;78.80;;;;;;5021354;28;20063;-72
2021/12/07 04:16:52;;;;;;;16.53;10.23;;;5.00;78.90;;;;;;5029827;28;20036;-72
2021/12/07 04:19:18;;;;;;;13.97;8.83;;;5.00;79.00;;;;;;5014009;28;20026;-72
2021/12/07 04:21:44;;;;;;;16.13;10.37;;;5.00;79.00;;;;;;5017167;28;20463;-72
2021/12/07 04:24:10;;;;;;;15.83;9.90;;;5.00;79.00;;;;;;5014768;28;20033;-72
2021/12/07 04:26:37;;;;;;;14.27;9.07;;;5.00;79.00;;;;;;5040084;28;20048;-72
2021/12/07 04:29:03;;;;;;;16.23;9.67;;;5.00;79.00;;;;;;5043534;28;20030;-72
2021/12/07 04:31:29;;;;;;;14.73;8.63;;;5.00;79.00;;;;;;5037443;28;20511;-72
2021/12/07 04:33:54;;;;;;;15.40;8.70;;;5.00;79.00;;;;;;5031122;28;20136;-72
2021/12/07 04:36:20;;;;;;;14.60;9.07;;;5.00;79.10;;;;;;5030862;28;20120;-72
2021/12/07 04:38:46;;;;;;;15.60;8.40;;;5.00;79.00;;;;;;5061496;28;20458;-72
2021/12/07 04:41:11;;;;;;;14.30;8.60;;;5.00;79.10;;;;;;5013991;28;20392;-72
2021/12/07 04:43:40;;;;;;;17.07;8.50;;;5.00;79.10;;;;;;5046689;28;20472;-72
2021/12/07 04:46:20;;;;;;;15.47;8.73;;;5.00;79.20;;;;;;5018042;28;20045;-72
2021/12/07 04:49:11;;;;;;;13.43;7.70;;;5.10;79.20;;;;;;5014121;28;20086;-72
2021/12/07 04:59:44;;;;;;;14.17;7.73;;;5.00;79.30;;;;;;5031671;28;20053;-72
2021/12/07 05:02:10;;;;;;;19.10;7.00;;;5.00;79.30;;;;;;5044828;28;20030;-72
2021/12/07 05:04:37;;;;;;;16.57;6.67;;;5.00;79.30;;;;;;5030106;28;20032;-72
2021/12/07 05:07:19;;;;;;;13.03;6.03;;;5.00;79.30;;;;;;5027977;28;20158;-72
2021/12/07 05:15:03;;;;;;;12.87;5.63;;;5.10;79.40;;;;;;5051950;28;20424;-72
2021/12/07 05:17:43;;;;;;;12.40;5.20;;;5.10;79.30;;;;;;5056991;28;20115;-72
2021/12/07 05:39:22;;;;;;;15.83;4.90;;;5.10;79.50;;;;;;5019071;28;20038;-72
2021/12/07 05:41:48;;;;;;;11.47;4.93;;;5.10;79.60;;;;;;5033197;28;20415;-72
2021/12/07 05:44:13;;;;;;;9.10;3.90;;;5.10;79.60;;;;;;5019388;28;20095;-72
2021/12/07 05:46:39;;;;;;;15.17;5.20;;;5.10;79.60;;;;;;5019063;28;20029;-72
2021/12/07 05:49:05;;;;;;;13.50;4.53;;;5.20;79.60;;;;;;5033251;28;20482;-72
2021/12/07 05:51:30;;;;;;;12.37;5.17;;;5.20;79.60;;;;;;5016059;28;20049;-72
2021/12/07 05:53:56;;;;;;;12.33;4.43;;;5.20;79.60;;;;;;4999118;28;20068;-72
2021/12/07 05:56:21;;;;;;;13.77;4.73;;;5.10;79.60;;;;;;5033777;28;20021;-72
2021/12/07 05:58:47;;;;;;;14.00;5.27;;;5.10;79.60;;;;;;5002601;28;20083;-72
2021/12/07 06:01:13;;;;;;;14.93;5.93;;;5.20;79.70;;;;;;5017337;28;20037;-72
2021/12/07 06:03:38;;;;;;;15.47;5.57;;;5.10;79.70;;;;;;5016229;28;20041;-72
2021/12/07 06:06:04;;;;;;;13.57;6.00;;;5.10;79.60;;;;;;5051236;28;20036;-73
2021/12/07 06:08:31;;;;;;;14.73;6.10;;;5.10;79.70;;;;;;5018953;28;20049;-71
2021/12/07 06:10:56;;;;;;;22.50;7.37;;;5.10;79.70;;;;;;5022081;28;20467;-72
2021/12/07 06:13:22;;;;;;;15.97;7.63;;;5.10;79.80;;;;;;5016854;28;20030;-72
2021/12/07 06:15:48;;;;;;;16.13;6.60;;;5.20;79.80;;;;;;5029957;28;20032;-74
2021/12/07 06:18:14;;;;;;;17.73;6.50;;;5.20;80.50;;;;;;5036567;28;20029;-71
2021/12/07 06:20:41;;;;;;;15.33;6.67;;;5.20;79.80;;;;;;5048489;28;20121;-71
2021/12/07 06:23:09;;;;;;;20.27;7.07;;;5.20;79.80;;;;;;5036031;28;20029;-71
2021/12/07 06:25:35;;;;;;;19.63;6.83;;;5.20;79.90;;;;;;5021196;28;20084;-70
2021/12/07 06:28:01;;;;;;;16.90;6.07;;;5.20;79.90;;;;;;5048978;28;20065;-70
2021/12/07 06:30:27;;;;;;;15.00;5.73;;;5.20;79.90;;;;;;5045197;28;20049;-71
2021/12/07 06:32:52;;;;;;;19.00;6.43;;;5.20;79.90;;;;;;5055643;28;20029;-72
2021/12/07 06:35:18;;;;;;;14.53;6.43;;;5.20;79.90;;;;;;5040839;28;20017;-72
2021/12/07 06:37:43;;;;;;;14.40;5.67;;;5.20;80.00;;;;;;5048186;28;20093;-73
2021/12/07 06:40:11;;;;;;;16.90;5.67;;;5.20;80.00;;;;;;5020840;28;20030;-73
2021/12/07 06:42:40;;;;;;;13.37;5.50;;;5.20;80.00;;;;;;5036489;28;20048;-73
2021/12/07 06:45:08;;;;;;;16.17;5.77;;;5.20;80.00;;;;;;5029395;28;20059;-73
2021/12/07 06:47:34;;;;;;;19.20;6.10;;;5.20;80.00;;;;;;5031735;28;20026;-74
2021/12/07 06:50:03;;;;;;;17.23;5.17;;;5.20;80.00;;;;;;5034337;28;20029;-73
2021/12/07 06:52:29;;;;;;;14.10;5.50;;;5.20;80.00;;;;;;5036573;28;20481;-73
2021/12/07 06:54:54;;;;;;;13.00;5.30;;;5.20;80.10;;;;;;5026652;28;20122;-73
2021/12/07 06:57:20;;;;;;;14.73;6.03;;;5.20;80.10;;;;;;5023932;28;20168;-73
2021/12/07 06:59:46;;;;;;;14.43;5.50;;;5.20;80.00;;;;;;5035198;28;20033;-73
2021/12/07 07:02:11;;;;;;;14.90;5.43;;;5.20;80.00;;;;;;5049140;28;20038;-74
2021/12/07 07:04:37;;;;;;;15.83;5.27;;;5.20;80.00;;;;;;5044237;28;20022;-73
2021/12/07 07:07:03;;;;;;;16.67;5.37;;;5.20;80.00;;;;;;5017016;28;20065;-73
2021/12/07 07:09:29;;;;;;;14.37;5.53;;;5.20;80.00;;;;;;5016299;28;20104;-73
2021/12/07 07:11:54;;;;;;;18.07;6.20;;;5.20;80.00;;;;;;5031684;28;20025;-74
2021/12/07 07:14:20;;;;;;;16.00;5.10;;;5.20;80.00;;;;;;5034801;28;20018;-74
2021/12/07 07:16:45;;;;;;;10.30;5.23;;;5.20;80.00;;;;;;5021625;28;20057;-70
2021/12/07 07:19:11;;;;;;;13.93;5.67;;;5.20;80.00;;;;;;5047902;28;20041;-70
2021/12/07 07:21:37;;;;;;;11.37;5.03;;;5.20;80.00;;;;;;5060345;28;20033;-73
2021/12/07 07:24:02;;;;;;;16.10;5.30;;;5.20;79.90;;;;;;5032070;28;20029;-72
2021/12/07 07:26:28;;;;;;;9.23;4.90;;;5.30;79.80;;;;;;5054204;28;20095;-71
2021/12/07 07:28:54;;;;;;;17.77;5.37;;;5.30;79.80;;;;;;5024659;28;20073;-72
2021/12/07 07:31:19;;;;;;;12.23;5.47;;;5.30;79.80;;;;;;5025887;28;20049;-72
2021/12/07 07:33:45;;;;;;;13.50;4.90;;;5.20;79.80;;;;;;5040647;28;20036;-72
2021/12/07 07:36:10;;;;;;;15.60;4.23;;;5.20;79.70;;;;;;5044984;28;20168;-69
2021/12/07 07:38:36;;;;;;;10.47;4.63;;;5.20;79.80;;;;;;5030393;28;20064;-70
2021/12/07 07:41:03;;;;;;;20.70;5.60;;;5.20;79.80;;;;;;5031400;28;20036;-69
2021/12/07 07:43:29;;;;;;;14.17;4.93;;;5.20;79.80;;;;;;5034581;28;20048;-69
2021/12/07 07:46:15;;;;;;;13.60;4.30;;;5.20;79.70;;;;;;5030113;28;20516;-72
2021/12/07 07:48:41;;;;;;;12.73;4.87;;;5.20;79.80;;;;;;5029558;28;20124;-71
2021/12/07 07:51:07;;;;;;;11.10;5.07;;;5.20;79.70;;;;;;5014527;28;20022;-72
2021/12/07 07:53:32;;;;;;;12.27;4.10;;;5.20;79.80;;;;;;5030759;28;20461;-71
2021/12/07 07:56:01;;;;;;;16.87;4.70;;;5.20;79.70;;;;;;5031744;28;20037;-72
2021/12/07 07:58:27;;;;;;;15.10;4.27;;;5.20;79.80;;;;;;5027851;28;20044;-72
2021/12/07 08:00:52;;;;;;;13.67;4.20;;;5.20;79.80;;;;;;5031030;28;20025;-71
2021/12/07 08:03:18;;;;;;;10.90;4.23;;;5.20;79.80;;;;;;5034465;28;20082;-71
2021/12/07 08:05:44;;;;;;;20.17;5.23;;;5.20;79.80;;;;;;5015578;28;20037;-71
2021/12/07 08:08:13;;;;;;;13.10;4.17;;;5.30;79.80;;;;;;5014967;28;20079;-71
2021/12/07 08:10:39;;;;;;;10.73;4.00;;;5.30;79.80;;;;;;5010345;28;20030;-72
2021/12/07 08:13:07;;;;;;;12.27;4.80;;;5.30;79.80;;;;;;5029269;28;20160;-72
2021/12/07 08:15:36;;;;;;;14.30;4.27;;;5.30;79.80;;;;;;5029352;28;20034;-71
2021/12/07 08:18:03;;;;;;;11.70;3.90;;;5.30;79.80;;;;;;5027485;28;20026;-71
2021/12/07 08:20:30;;;;;;;13.73;4.20;;;5.40;79.80;;;;;;5028979;28;20116;-71
2021/12/07 08:22:56;;;;;;;18.07;4.70;;;5.40;79.70;;;;;;5031264;28;20440;-71
2021/12/07 08:25:22;;;;;;;13.80;3.33;;;5.50;79.80;;;;;;5029202;28;20234;-66
2021/12/07 08:27:47;;;;;;;12.73;4.10;;;5.50;79.80;;;;;;5041535;28;20030;-68
2021/12/07 08:30:15;;;;;;;15.30;4.47;;;5.50;79.70;;;;;;5015704;28;20512;-70
2021/12/07 08:32:45;;;;;;;12.53;4.43;;;5.60;79.70;;;;;;5031344;28;20554;-70
2021/12/07 08:35:13;;;;;;;11.07;3.60;;;5.60;79.70;;;;;;5027675;28;20044;-69
2021/12/07 08:37:38;;;;;;;11.67;3.73;;;5.60;79.70;;;;;;5030239;28;20025;-68
2021/12/07 08:40:09;;;;;;;15.70;4.67;;;5.70;79.70;;;;;;5035196;28;20026;-70
2021/12/07 08:42:35;;;;;;;11.20;3.43;;;5.70;79.70;;;;;;5022302;28;20036;-70
2021/12/07 08:45:01;;;;;;;9.90;3.40;;;5.70;79.70;;;;;;5050748;28;20729;-68
2021/12/07 08:47:27;;;;;;;10.67;3.47;;;5.80;79.70;;;;;;5034522;28;20026;-68
2021/12/07 08:49:55;;;;;;;15.93;4.10;;;5.80;79.60;;;;;;5015981;28;20024;-67
2021/12/07 08:52:20;;;;;;;14.67;4.27;;;5.80;79.60;;;;;;5041348;28;20021;-67
2021/12/07 08:59:55;;;;;;;13.70;4.83;;;5.90;79.60;;;;;;5066472;28;20090;-68
2021/12/07 09:02:23;;;;;;;18.83;5.00;;;5.90;79.50;;;;;;5033512;28;20033;-68
2021/12/07 09:04:49;;;;;;;16.60;4.97;;;6.00;79.60;;;;;;5033273;28;20026;-69
2021/12/07 09:07:15;;;;;;;13.50;5.33;;;6.00;79.50;;;;;;5034332;28;20029;-68
2021/12/07 09:09:44;;;;;;;18.20;5.63;;;6.00;79.50;;;;;;5033317;28;20374;-68
2021/12/07 09:12:11;;;;;;;15.60;4.90;;;6.10;79.50;;;;;;5033244;28;20033;-68
2021/12/07 09:14:37;;;;;;;16.07;5.43;;;6.10;79.50;;;;;;5032352;28;20028;-68
2021/12/07 09:17:05;;;;;;;17.27;5.20;;;6.20;79.40;;;;;;5049699;28;20025;-68
2021/12/07 09:19:32;;;;;;;15.53;5.23;;;6.20;79.30;;;;;;5030976;28;20022;-69
2021/12/07 09:21:57;;;;;;;14.27;5.37;;;6.20;79.30;;;;;;5039186;28;20025;-69
2021/12/07 09:24:24;;;;;;;14.87;5.50;;;6.30;79.30;;;;;;5040056;28;20480;-69
2021/12/07 09:26:50;;;;;;;19.67;6.37;;;6.30;79.30;;;;;;5041276;28;20033;-69
2021/12/07 09:29:16;;;;;;;19.30;6.17;;;6.30;79.30;;;;;;5053511;28;20043;-69
2021/12/07 09:31:42;;;;;;;16.53;5.73;;;6.20;80.00;;;;;;5051061;28;20464;-69
2021/12/07 09:34:09;;;;;;;17.67;6.20;;;6.30;79.40;;;;;;5068738;28;20025;-72
2021/12/07 09:36:41;;;;;;;16.60;5.80;;;6.30;79.30;;;;;;5053879;28;20163;-70
2021/12/07 09:39:10;;;;;;;13.90;5.37;;;6.40;79.30;;;;;;5039136;28;20050;-70
2021/12/07 09:41:36;;;;;;;21.57;6.47;;;6.40;79.20;;;;;;5047295;28;20032;-69
2021/12/07 09:44:02;;;;;;;17.03;6.00;;;6.40;79.20;;;;;;5034431;28;20029;-69
2021/12/07 09:46:28;;;;;;;15.47;5.63;;;6.50;79.20;;;;;;5086398;28;20389;-69
2021/12/07 09:48:54;;;;;;;19.60;7.10;;;6.50;79.10;;;;;;5051136;28;20029;-69
2021/12/07 09:51:22;;;;;;;15.53;6.07;;;6.50;79.10;;;;;;5036585;28;20057;-68
2021/12/07 09:53:52;;;;;;;19.27;6.57;;;6.60;79.20;;;;;;5056003;28;20025;-70
2021/12/07 09:56:19;;;;;;;14.47;4.60;;;6.60;79.10;;;;;;5036516;28;20032;-70
2021/12/07 09:58:48;;;;;;;17.57;5.93;;;6.70;79.00;;;;;;5015432;28;20034;-69
2021/12/07 10:01:14;;;;;;;14.10;5.10;;;6.80;78.80;;;;;;5066361;28;20370;-69
2021/12/07 10:03:40;;;;;;;14.50;5.03;;;7.00;78.60;;;;;;5027492;28;20029;-69
2021/12/07 10:06:06;;;;;;;15.43;5.53;;;7.10;78.30;;;;;;5057184;28;20403;-70
2021/12/07 10:08:32;;;;;;;16.73;5.30;;;7.20;78.10;;;;;;5034253;28;20057;-70
2021/12/07 10:11:01;;;;;;;15.70;5.13;;;7.30;77.80;;;;;;5018353;28;20031;-67
2021/12/07 10:13:29;;;;;;;15.07;5.63;;;7.40;77.60;;;;;;5039482;28;20032;-69
2021/12/07 10:15:57;;;;;;;12.17;5.00;;;7.60;78.10;;;;;;5048092;28;20516;-69
2021/12/07 10:18:36;;;;;;;17.37;5.57;;;7.60;77.20;;;;;;5054796;28;20079;-69
2021/12/07 10:21:16;;;;;;;15.57;4.90;;;7.70;77.00;;;;;;5038365;28;20128;-68
2021/12/07 10:24:07;;;;;;;15.97;5.47;;;7.80;76.80;;;;;;5037397;28;20041;-68
2021/12/07 10:26:43;;;;;;;17.33;4.83;;;7.90;76.60;;;;;;5035758;28;20136;-69
2021/12/07 10:29:20;;;;;;;16.50;5.77;;;8.10;76.40;;;;;;5068014;28;20116;-69
2021/12/07 10:31:53;;;;;;;16.40;5.03;;;8.10;76.20;;;;;;5046120;28;20063;-69
2021/12/07 10:34:28;;;;;;;13.33;4.90;;;8.20;76.10;;;;;;5026705;28;20029;-69
2021/12/07 10:37:09;;;;;;;14.50;5.43;;;8.20;76.00;;;;;;5051158;28;20037;-71
2021/12/07 10:39:57;;;;;;;16.77;6.50;;;8.30;75.90;;;;;;5060935;28;20036;-71
2021/12/07 10:42:29;;;;;;;17.07;5.13;;;8.30;75.60;;;;;;5020273;28;20272;-70
2021/12/07 10:44:58;;;;;;;14.37;5.77;;;8.40;75.60;;;;;;5045825;28;20025;-70
2021/12/07 10:47:24;;;;;;;12.20;4.93;;;8.40;75.50;;;;;;5049120;28;20449;-70
2021/12/07 10:49:51;;;;;;;14.13;4.37;;;8.40;75.50;;;;;;5086166;28;20029;-70
2021/12/07 10:52:40;;;;;;;10.83;4.87;;;8.50;75.50;;;;;;5046774;28;20326;-70
2021/12/07 10:55:25;;;;;;;15.07;5.43;;;8.50;75.20;;;;;;5036120;28;20041;-70
2021/12/07 10:57:55;;;;;;;13.87;4.73;;;8.50;75.10;;;;;;5053391;28;20033;-70
2021/12/07 11:00:44;;;;;;;12.57;4.13;;;8.60;75.10;;;;;;5069371;28;20045;-70
2021/12/07 11:03:25;;;;;;;13.40;4.80;;;8.60;75.00;;;;;;5046615;28;20021;-70
2021/12/07 11:05:54;;;;;;;15.63;4.17;;;8.60;74.90;;;;;;5043594;28;20086;-70
2021/12/07 11:08:26;;;;;;;10.63;3.93;;;8.60;74.90;;;;;;5041490;28;20447;-70
2021/12/07 11:10:52;;;;;;;12.17;4.87;;;8.60;74.90;;;;;;5032420;28;20051;-70
2021/12/07 11:13:36;;;;;;;11.47;4.00;;;8.60;74.90;;;;;;5049020;28;20028;-69
2021/12/07 11:16:15;;;;;;;10.60;3.63;;;8.50;75.00;;;;;;5034893;28;20037;-70
2021/12/07 11:18:44;;;;;;;14.77;4.83;;;8.50;75.20;;;;;;5034670;28;20037;-70
2021/12/07 11:21:17;;;;;;;14.73;4.77;;;8.50;75.30;;;;;;5034416;28;20040;-70
2021/12/07 11:23:45;;;;;;;14.27;4.20;;;8.50;75.30;;;;;;5053998;28;20033;-70
2021/12/07 11:31:37;;;;;;;10.27;3.33;;;8.40;75.50;;;;;;5063081;28;20370;-70
2021/12/07 11:34:15;;;;;;;11.30;4.83;;;8.30;75.60;;;;;;5034387;28;20028;-70
2021/12/07 11:36:49;;;;;;;14.23;4.80;;;8.30;75.70;;;;;;5046493;28;20033;-70
2021/12/07 11:39:27;;;;;;;14.43;4.53;;;8.20;75.80;;;;;;5055586;28;20061;-70
2021/12/07 11:42:10;;;;;;;13.63;4.20;;;8.20;75.80;;;;;;5022877;28;20087;-70
2021/12/07 11:44:56;;;;;;;12.50;3.93;;;8.20;75.80;;;;;;5030941;28;20400;-70
2021/12/07 11:47:33;;;;;;;11.50;4.23;;;8.20;75.90;;;;;;5050690;28;20062;-70
2021/12/07 11:50:21;;;;;;;11.23;4.50;;;8.10;75.90;;;;;;5014820;28;20084;-71
2021/12/07 11:52:50;;;;;;;11.43;4.03;;;8.10;75.90;;;;;;5035010;28;20102;-70
2021/12/07 11:55:17;;;;;;;12.53;4.13;;;8.10;76.00;;;;;;5035186;28;20029;-70
2021/12/07 11:57:43;;;;;;;9.80;3.53;;;8.10;76.10;;;;;;5034000;28;20037;-70
2021/12/07 12:00:14;;;;;;;10.77;3.63;;;8.00;76.10;;;;;;5067324;28;20029;-70
2021/12/07 12:02:40;;;;;;;12.80;3.55;;;8.00;76.20;;;;;;5035524;28;20048;-70
2021/12/07 12:05:07;;;;;;;16.43;4.60;;;8.00;76.20;;;;;;5033760;28;20034;-70
2021/12/07 12:07:33;;;;;;;12.07;3.80;;;8.00;76.30;;;;;;5067423;28;20112;-70
2021/12/07 12:09:59;;;;;;;14.43;3.50;;;7.90;76.30;;;;;;5035320;28;20420;-70
2021/12/07 12:12:40;;;;;;;12.87;4.63;;;7.90;76.30;;;;;;5050477;28;20033;-70
2021/12/07 12:15:24;;;;;;;11.52;4.18;;;7.90;76.40;;;;;;5034031;28;20456;-70
2021/12/07 12:18:18;;;;;;;10.47;3.93;;;7.90;77.10;;;;;;5035138;28;20048;-70
2021/12/07 12:21:09;;;;;;;13.93;4.03;;;7.90;76.40;;;;;;5017459;28;20087;-70
2021/12/07 12:24:08;;;;;;;9.13;3.60;;;7.90;76.40;;;;;;5015195;28;20038;-70
2021/12/07 12:26:35;;;;;;;14.37;4.20;;;7.90;76.30;;;;;;5047279;28;20530;-70
2021/12/07 12:29:14;;;;;;;11.67;3.93;;;7.90;76.40;;;;;;5013874;28;20053;-70
2021/12/07 12:31:58;;;;;;;12.63;3.70;;;7.90;76.30;;;;;;5014605;28;20042;-70
2021/12/07 12:34:29;;;;;;;10.13;3.70;;;8.00;76.30;;;;;;5013670;28;20033;-70
2021/12/07 12:37:05;;;;;;;15.88;3.92;;;8.00;76.30;;;;;;5013676;28;20048;-70
2021/12/07 12:39:49;;;;;;;9.53;3.20;;;8.00;76.30;;;;;;5030101;28;20033;-68
2021/12/07 12:42:29;;;;;;;9.30;3.93;;;8.00;76.10;;;;;;5013973;28;20042;-68
2021/12/07 12:45:28;;;;;;;11.47;4.53;;;8.00;76.10;;;;;;5014811;28;20030;-68
2021/12/07 12:47:59;;;;;;;9.07;3.13;;;8.00;76.10;;;;;;5006664;28;20348;-70
2021/12/07 12:50:35;;;;;;;9.43;3.35;;;8.00;76.10;;;;;;5014082;28;20030;-70
2021/12/07 12:53:05;;;;;;;12.60;3.57;;;8.00;76.10;;;;;;5051660;28;20044;-70
2021/12/07 12:55:39;;;;;;;12.13;4.13;;;8.00;76.10;;;;;;5054321;28;20175;-70
2021/12/07 12:58:20;;;;;;;10.60;3.57;;;8.00;76.00;;;;;;5054306;28;20037;-70
2021/12/07 13:01:08;;;;;;;10.90;3.95;;;7.90;76.00;;;;;;5053344;28;20380;-69
2021/12/07 13:03:48;;;;;;;8.63;3.30;;;7.90;75.90;;;;;;5053409;28;20036;-70
2021/12/07 13:06:32;;;;;;;9.33;3.60;;;7.90;75.90;;;;;;5054234;28;20135;-70
2021/12/07 13:09:02;;;;;;;9.77;3.43;;;7.90;75.90;;;;;;5052674;28;20047;-70
2021/12/07 13:11:53;;;;;;;9.23;3.43;;;7.90;75.90;;;;;;5050101;28;20021;-70
2021/12/07 13:14:21;;;;;;;13.20;4.43;;;7.90;75.70;;;;;;5043718;28;20047;-69
2021/12/07 13:17:08;;;;;;;10.57;3.47;;;7.90;75.80;;;;;;5053821;28;20025;-70
2021/12/07 13:20:11;;;;;;;12.50;3.87;;;7.80;75.60;;;;;;5048043;28;20057;-67
2021/12/07 13:22:52;;;;;;;10.60;3.23;;;7.90;75.60;;;;;;5004572;28;20041;-68
2021/12/07 13:25:30;;;;;;;9.37;3.33;;;7.90;75.90;;;;;;5073971;28;20045;-71
2021/12/07 13:28:13;;;;;;;9.20;3.40;;;7.90;75.60;;;;;;5054132;28;20059;-71
2021/12/07 13:30:45;;;;;;;9.47;2.90;;;7.90;76.10;;;;;;5049306;28;20041;-70
2021/12/07 13:33:18;;;;;;;;;;;7.90;75.40;;;;;;5056964;28;20029;-70
2021/12/07 13:35:45;;;;;;;10.40;3.17;;;7.80;75.40;;;;;;5050342;28;19915;-70
2021/12/07 13:38:21;;;;;;;9.50;3.23;;;7.80;75.50;;;;;;5047826;28;20029;-71
2021/12/07 13:40:51;;;;;;;10.23;3.10;;;7.80;75.80;;;;;;5056876;28;20361;-71
2021/12/07 13:43:31;;;;;;;13.83;3.73;;;7.80;75.50;;;;;;5052881;28;20039;-71
2021/12/07 13:46:21;;;;;;;10.83;2.83;;;7.80;75.50;;;;;;5034322;28;20456;-70
2021/12/07 13:48:49;;;;;;;13.03;3.97;;;7.80;75.40;;;;;;5035558;28;20111;-69
2021/12/07 13:51:18;;;;;;;9.80;3.57;;;7.80;75.50;;;;;;5057028;28;20029;-69
2021/12/07 13:53:44;;;;;;;12.10;3.57;;;7.70;75.50;;;;;;5057117;28;20159;-68
2021/12/07 13:56:11;;;;;;;19.17;3.37;;;7.70;75.50;;;;;;5050079;28;20104;-68
2021/12/07 13:59:01;;;;;;;9.13;3.53;;;7.70;75.50;;;;;;5048026;28;20034;-70
2021/12/07 14:01:30;;;;;;;11.73;3.67;;;7.70;75.50;;;;;;5055954;28;20127;-69
2021/12/07 14:03:58;;;;;;;8.07;3.17;;;7.70;75.50;;;;;;5055848;28;20486;-69
2021/12/07 14:06:25;;;;;;;12.70;3.53;;;7.70;75.50;;;;;;5046367;28;20076;-69
2021/12/07 14:08:51;;;;;;;12.73;4.30;;;7.70;75.60;;;;;;5042252;28;20040;-68
2021/12/07 14:11:18;;;;;;;9.93;3.00;;;7.60;75.60;;;;;;5036390;28;20098;-69
2021/12/07 14:13:47;;;;;;;13.23;3.60;;;7.60;75.60;;;;;;5034348;28;20029;-68
2021/12/07 14:16:15;;;;;;;16.23;3.97;;;7.60;75.60;;;;;;5033813;28;20040;-68
2021/12/07 14:18:45;;;;;;;9.90;3.50;;;7.60;75.60;;;;;;5043087;28;20355;-68
2021/12/07 14:21:11;;;;;;;9.73;3.37;;;7.60;75.60;;;;;;5030242;28;20107;-67
2021/12/07 14:23:41;;;;;;;9.33;3.37;;;7.50;75.50;;;;;;5058951;28;20434;-67
2021/12/07 14:26:22;;;;;;;10.13;3.43;;;7.50;75.50;;;;;;5067380;28;20088;-69
2021/12/07 14:28:51;;;;;;;10.50;3.05;;;7.50;75.50;;;;;;5056119;28;20357;-70
2021/12/07 14:31:24;;;;;;;10.80;3.43;;;7.50;75.60;;;;;;5027598;28;20067;-70
2021/12/07 14:33:52;;;;;;;12.73;3.87;;;7.50;75.60;;;;;;5059792;28;20084;-71
2021/12/07 14:36:36;;;;;;;10.43;3.70;;;7.50;75.60;;;;;;5033551;28;20030;-69
2021/12/07 14:39:05;;;;;;;13.07;3.43;;;7.50;75.70;;;;;;5040040;28;20037;-69
2021/12/07 14:41:31;;;;;;;8.27;3.00;;;7.40;75.60;;;;;;5058069;28;20029;-69